Time,TemperatureF,DewpointF,PressureIn,WindDirection,WindDirectionDegrees,WindSpeedMPH,WindSpeedGustMPH,Humidity,HourlyPrecipIn,Conditions,Clouds,dailyrainin,SoftwareType,DateUTC
2013-10-16 00:01:00,33.3,11.6,0.00,NW,313,0.0,0.0,40,0.00,,---,0.00,VWS V14.01,2013-10-16 05:01:00,
2013-10-16 00:06:00,33.1,11.4,0.00,WNW,287,0.0,0.0,40,0.00,,---,0.00,VWS V14.01,2013-10-16 05:06:00,
2013-10-16 00:11:00,33.3,12.1,0.00,WNW,287,0.0,0.0,41,0.00,,---,0.00,VWS V14.01,2013-10-16 05:11:00,
2013-10-16 00:16:00,32.5,11.5,0.00,West,279,0.0,0.0,41,0.00,,---,0.00,VWS V14.01,2013-10-16 05:16:00,
2013-10-16 00:21:00,32.7,11.6,0.00,West,279,3.1,3.1,41,0.00,,---,0.00,VWS V14.01,2013-10-16 05:21:00,
2013-10-16 00:26:00,32.7,11.6,0.00,West,259,3.1,3.1,41,0.00,,---,0.00,VWS V14.01,2013-10-16 05:26:00,
2013-10-16 00:31:00,32.4,11.3,0.00,WNW,292,2.2,2.2,41,0.00,,---,0.00,VWS V14.01,2013-10-16 05:31:00,
2013-10-16 00:36:00,32.0,11.0,0.00,WNW,293,0.0,0.0,41,0.00,,---,0.00,VWS V14.01,2013-10-16 05:36:00,
2013-10-16 00:41:00,32.0,11.0,0.00,WSW,254,2.7,2.7,41,0.00,,---,0.00,VWS V14.01,2013-10-16 05:41:00,
2013-10-16 00:46:00,32.2,11.1,0.00,West,262,2.7,2.7,41,0.00,,---,0.00,VWS V14.01,2013-10-16 05:46:00,
2013-10-16 00:51:00,31.6,10.6,0.00,West,265,2.7,2.7,41,0.00,,---,0.00,VWS V14.01,2013-10-16 05:51:00,
2013-10-16 00:56:00,31.1,10.2,0.00,West,279,0.0,0.0,41,0.00,,---,0.00,VWS V14.01,2013-10-16 05:56:00,
2013-10-16 01:01:00,30.7,9.8,0.00,West,279,0.0,0.0,41,0.00,,---,0.00,VWS V14.01,2013-10-16 06:01:00,
2013-10-16 01:06:00,30.2,9.4,0.00,West,279,0.0,0.0,41,0.00,,---,0.00,VWS V14.01,2013-10-16 06:06:00,
2013-10-16 01:11:00,29.8,9.0,0.00,West,279,0.0,0.0,41,0.00,,---,0.00,VWS V14.01,2013-10-16 06:11:00,
2013-10-16 01:16:00,30.0,9.2,0.00,West,279,2.7,2.7,41,0.00,,---,0.00,VWS V14.01,2013-10-16 06:16:00,
2013-10-16 01:21:00,30.4,9.5,0.00,West,279,0.0,0.0,41,0.00,,---,0.00,VWS V14.01,2013-10-16 06:21:00,
2013-10-16 01:26:00,29.8,9.0,0.00,West,279,0.0,0.0,41,0.00,,---,0.00,VWS V14.01,2013-10-16 06:26:00,
2013-10-16 01:31:00,30.0,9.7,0.00,West,279,3.1,3.1,42,0.00,,---,0.00,VWS V14.01,2013-10-16 06:31:00,
2013-10-16 01:36:00,30.0,9.7,0.00,West,279,0.0,0.0,42,0.00,,---,0.00,VWS V14.01,2013-10-16 06:36:00,
2013-10-16 01:41:00,30.2,9.9,0.00,West,279,0.0,0.0,42,0.00,,---,0.00,VWS V14.01,2013-10-16 06:41:00,
2013-10-16 01:46:00,29.8,9.6,0.00,West,279,0.0,0.0,42,0.00,,---,0.00,VWS V14.01,2013-10-16 06:46:00,
2013-10-16 01:51:00,29.8,9.6,0.00,WSW,248,0.0,0.0,42,0.00,,---,0.00,VWS V14.01,2013-10-16 06:51:00,
2013-10-16 01:56:00,30.2,9.9,0.00,WSW,253,0.0,4.0,42,0.00,,---,0.00,VWS V14.01,2013-10-16 06:56:00,
2013-10-16 02:01:00,30.2,9.9,0.00,West,275,2.2,2.2,42,0.00,,---,0.00,VWS V14.01,2013-10-16 07:01:00,
2013-10-16 02:06:00,30.2,9.9,0.00,West,265,0.0,0.0,42,0.00,,---,0.00,VWS V14.01,2013-10-16 07:06:00,
2013-10-16 02:11:00,30.0,9.7,0.00,West,272,0.0,0.0,42,0.00,,---,0.00,VWS V14.01,2013-10-16 07:11:00,
2013-10-16 02:16:00,29.8,9.6,0.00,West,268,0.0,0.0,42,0.00,,---,0.00,VWS V14.01,2013-10-16 07:16:00,
2013-10-16 02:21:00,29.5,9.2,0.00,West,280,0.0,0.0,42,0.00,,---,0.00,VWS V14.01,2013-10-16 07:21:00,
2013-10-16 02:26:00,29.5,9.2,0.00,West,280,2.7,2.7,42,0.00,,---,0.00,VWS V14.01,2013-10-16 07:26:00,
2013-10-16 02:31:00,29.3,9.1,0.00,West,281,0.0,0.0,42,0.00,,---,0.00,VWS V14.01,2013-10-16 07:31:00,
2013-10-16 02:36:00,29.1,8.9,0.00,West,280,0.0,0.0,42,0.00,,---,0.00,VWS V14.01,2013-10-16 07:36:00,
2013-10-16 02:41:00,28.8,8.6,0.00,WSW,244,0.0,0.0,42,0.00,,---,0.00,VWS V14.01,2013-10-16 07:41:00,
2013-10-16 02:46:00,28.8,8.6,0.00,WSW,245,0.0,0.0,42,0.00,,---,0.00,VWS V14.01,2013-10-16 07:46:00,
2013-10-16 02:51:00,28.4,8.8,0.00,West,261,0.0,0.0,43,0.00,,---,0.00,VWS V14.01,2013-10-16 07:51:00,
2013-10-16 02:56:00,28.6,8.4,0.00,West,261,0.0,0.0,42,0.00,,---,0.00,VWS V14.01,2013-10-16 07:56:00,
2013-10-16 03:01:00,28.2,8.6,0.00,West,261,0.0,0.0,43,0.00,,---,0.00,VWS V14.01,2013-10-16 08:01:00,
2013-10-16 03:06:00,27.9,8.3,0.00,West,261,0.0,0.0,43,0.00,,---,0.00,VWS V14.01,2013-10-16 08:06:00,
2013-10-16 03:11:00,27.3,7.3,0.00,West,261,0.0,0.0,42,0.00,,---,0.00,VWS V14.01,2013-10-16 08:11:00,
2013-10-16 03:16:00,27.5,7.9,0.00,West,262,0.0,0.0,43,0.00,,---,0.00,VWS V14.01,2013-10-16 08:16:00,
2013-10-16 03:21:00,27.5,7.9,0.00,West,262,0.0,0.0,43,0.00,,---,0.00,VWS V14.01,2013-10-16 08:21:00,
2013-10-16 03:26:00,27.7,8.1,0.00,WSW,246,0.0,0.0,43,0.00,,---,0.00,VWS V14.01,2013-10-16 08:26:00,
2013-10-16 03:31:00,27.9,8.3,0.00,WSW,256,0.0,0.0,43,0.00,,---,0.00,VWS V14.01,2013-10-16 08:31:00,
2013-10-16 03:36:00,28.4,9.3,0.00,West,262,0.0,0.0,44,0.00,,---,0.00,VWS V14.01,2013-10-16 08:36:00,
2013-10-16 03:41:00,28.0,8.9,0.00,West,263,0.0,0.0,44,0.00,,---,0.00,VWS V14.01,2013-10-16 08:41:00,
2013-10-16 03:46:00,27.9,8.8,0.00,West,268,0.0,0.0,44,0.00,,---,0.00,VWS V14.01,2013-10-16 08:46:00,
2013-10-16 03:51:00,27.7,8.6,0.00,West,268,0.0,0.0,44,0.00,,---,0.00,VWS V14.01,2013-10-16 08:51:00,
2013-10-16 03:56:00,27.9,8.3,0.00,West,268,0.0,0.0,43,0.00,,---,0.00,VWS V14.01,2013-10-16 08:56:00,
2013-10-16 04:01:00,27.9,8.3,0.00,West,268,0.0,0.0,43,0.00,,---,0.00,VWS V14.01,2013-10-16 09:01:00,
2013-10-16 04:06:00,28.2,9.1,0.00,West,268,0.0,0.0,44,0.00,,---,0.00,VWS V14.01,2013-10-16 09:06:00,
2013-10-16 04:11:00,28.2,9.1,0.00,WSW,245,2.2,2.2,44,0.00,,---,0.00,VWS V14.01,2013-10-16 09:11:00,
2013-10-16 04:16:00,27.7,8.6,0.00,WSW,245,0.0,0.0,44,0.00,,---,0.00,VWS V14.01,2013-10-16 09:16:00,
2013-10-16 04:21:00,27.3,8.3,0.00,West,263,0.0,0.0,44,0.00,,---,0.00,VWS V14.01,2013-10-16 09:21:00,
2013-10-16 04:26:00,27.7,8.6,0.00,West,276,2.2,2.2,44,0.00,,---,0.00,VWS V14.01,2013-10-16 09:26:00,
2013-10-16 04:31:00,28.2,9.1,0.00,West,269,0.0,0.0,44,0.00,,---,0.00,VWS V14.01,2013-10-16 09:31:00,
2013-10-16 04:36:00,28.4,9.8,0.00,WSW,258,0.0,0.0,45,0.00,,---,0.00,VWS V14.01,2013-10-16 09:36:00,
2013-10-16 04:41:00,28.8,10.1,0.00,West,268,0.0,0.0,45,0.00,,---,0.00,VWS V14.01,2013-10-16 09:41:00,
2013-10-16 04:46:00,29.1,10.4,0.00,West,280,0.0,2.2,45,0.00,,---,0.00,VWS V14.01,2013-10-16 09:46:00,
2013-10-16 04:51:00,29.1,10.4,0.00,West,274,2.2,2.2,45,0.00,,---,0.00,VWS V14.01,2013-10-16 09:51:00,
2013-10-16 04:56:00,29.1,10.4,0.00,WSW,254,0.0,0.0,45,0.00,,---,0.00,VWS V14.01,2013-10-16 09:56:00,
2013-10-16 05:01:00,28.9,10.3,0.00,West,261,0.0,0.0,45,0.00,,---,0.00,VWS V14.01,2013-10-16 10:01:00,
2013-10-16 05:06:00,28.8,10.1,0.00,West,272,0.0,0.0,45,0.00,,---,0.00,VWS V14.01,2013-10-16 10:06:00,
2013-10-16 05:11:00,28.9,10.3,0.00,WSW,250,0.0,0.0,45,0.00,,---,0.00,VWS V14.01,2013-10-16 10:11:00,
2013-10-16 05:16:00,28.8,10.1,0.00,West,277,0.0,0.0,45,0.00,,---,0.00,VWS V14.01,2013-10-16 10:16:00,
2013-10-16 05:21:00,28.6,9.9,0.00,WSW,256,0.0,0.0,45,0.00,,---,0.00,VWS V14.01,2013-10-16 10:21:00,
2013-10-16 05:26:00,28.2,9.6,0.00,WSW,250,0.0,0.0,45,0.00,,---,0.00,VWS V14.01,2013-10-16 10:26:00,
2013-10-16 05:31:00,28.2,9.6,0.00,WSW,250,0.0,0.0,45,0.00,,---,0.00,VWS V14.01,2013-10-16 10:31:00,
2013-10-16 05:36:00,28.0,9.4,0.00,WSW,250,0.0,0.0,45,0.00,,---,0.00,VWS V14.01,2013-10-16 10:36:00,
2013-10-16 05:41:00,28.0,9.4,0.00,WSW,251,0.0,0.0,45,0.00,,---,0.00,VWS V14.01,2013-10-16 10:41:00,
2013-10-16 05:46:00,27.5,9.0,0.00,WSW,251,0.0,0.0,45,0.00,,---,0.00,VWS V14.01,2013-10-16 10:46:00,
2013-10-16 05:51:00,27.0,8.5,0.00,WSW,251,0.0,0.0,45,0.00,,---,0.00,VWS V14.01,2013-10-16 10:51:00,
2013-10-16 05:56:00,26.6,8.6,0.00,West,265,0.0,0.0,46,0.00,,---,0.00,VWS V14.01,2013-10-16 10:56:00,
2013-10-16 06:01:00,28.2,10.1,0.00,West,272,0.0,0.0,46,0.00,,---,0.00,VWS V14.01,2013-10-16 11:01:00,
2013-10-16 06:06:00,28.4,10.8,0.00,West,273,0.0,0.0,47,0.00,,---,0.00,VWS V14.01,2013-10-16 11:06:00,
2013-10-16 06:11:00,28.2,10.6,0.00,West,264,0.0,0.0,47,0.00,,---,0.00,VWS V14.01,2013-10-16 11:11:00,
2013-10-16 06:16:00,27.9,10.3,0.00,West,264,0.0,0.0,47,0.00,,---,0.00,VWS V14.01,2013-10-16 11:16:00,
2013-10-16 06:21:00,27.7,10.1,0.00,West,264,0.0,0.0,47,0.00,,---,0.00,VWS V14.01,2013-10-16 11:21:00,
2013-10-16 06:26:00,27.7,9.1,0.00,WNW,299,0.0,0.0,45,0.00,,---,0.00,VWS V14.01,2013-10-16 11:26:00,
2013-10-16 06:31:00,27.7,9.1,0.00,WNW,299,0.0,0.0,45,0.00,,---,0.00,VWS V14.01,2013-10-16 11:31:00,
2013-10-16 06:36:00,27.5,9.0,0.00,WNW,299,0.0,0.0,45,0.00,,---,0.00,VWS V14.01,2013-10-16 11:36:00,
2013-10-16 06:41:00,27.1,8.6,0.00,WNW,299,0.0,0.0,45,0.00,,---,0.00,VWS V14.01,2013-10-16 11:41:00,
2013-10-16 06:46:00,27.0,8.0,0.00,WNW,299,0.0,0.0,44,0.00,,---,0.00,VWS V14.01,2013-10-16 11:46:00,
2013-10-16 06:51:00,26.4,7.5,0.00,WNW,299,0.0,0.0,44,0.00,,---,0.00,VWS V14.01,2013-10-16 11:51:00,
2013-10-16 06:56:00,26.2,7.3,0.00,WNW,299,0.0,0.0,44,0.00,,---,0.00,VWS V14.01,2013-10-16 11:56:00,
2013-10-16 07:01:00,26.1,7.2,0.00,WNW,299,0.0,0.0,44,0.00,,---,0.00,VWS V14.01,2013-10-16 12:01:00,
2013-10-16 07:06:00,26.1,7.2,0.00,WNW,299,0.0,0.0,44,0.00,,---,0.00,VWS V14.01,2013-10-16 12:06:00,
2013-10-16 07:11:00,26.1,7.2,0.00,WNW,299,0.0,0.0,44,0.00,,---,0.00,VWS V14.01,2013-10-16 12:11:00,
2013-10-16 07:16:00,26.1,7.2,0.00,WNW,299,0.0,0.0,44,0.00,,---,0.00,VWS V14.01,2013-10-16 12:16:00,
2013-10-16 07:21:00,27.0,8.5,0.00,WNW,299,0.0,0.0,45,0.00,,---,0.00,VWS V14.01,2013-10-16 12:21:00,
2013-10-16 07:26:00,26.6,9.1,0.00,WNW,299,0.0,0.0,47,0.00,,---,0.00,VWS V14.01,2013-10-16 12:26:00,
2013-10-16 07:31:00,26.1,7.2,0.00,WNW,299,0.0,0.0,44,0.00,,---,0.00,VWS V14.01,2013-10-16 12:31:00,
2013-10-16 07:36:00,26.1,6.6,0.00,WNW,299,0.0,0.0,43,0.00,,---,0.00,VWS V14.01,2013-10-16 12:36:00,
2013-10-16 07:41:00,25.9,6.0,0.00,WNW,299,0.0,0.0,42,0.00,,---,0.00,VWS V14.01,2013-10-16 12:41:00,
2013-10-16 07:46:00,26.1,6.6,0.00,NW,320,0.0,0.0,43,0.00,,---,0.00,VWS V14.01,2013-10-16 12:46:00,
2013-10-16 07:51:00,26.1,6.6,0.00,NW,320,0.0,0.0,43,0.00,,---,0.00,VWS V14.01,2013-10-16 12:51:00,
2013-10-16 07:56:00,26.2,6.8,0.00,NW,320,0.0,0.0,43,0.00,,---,0.00,VWS V14.01,2013-10-16 12:56:00,
2013-10-16 08:01:00,26.8,6.8,0.00,NW,305,2.2,2.2,42,0.00,,---,0.00,VWS V14.01,2013-10-16 13:01:00,
2013-10-16 08:06:00,27.0,6.9,0.00,NW,312,0.0,0.0,42,0.00,,---,0.00,VWS V14.01,2013-10-16 13:06:00,
2013-10-16 08:11:00,27.5,7.4,0.00,NW,307,0.0,0.0,42,0.00,,---,0.00,VWS V14.01,2013-10-16 13:11:00,
2013-10-16 08:16:00,28.2,8.6,0.00,WNW,301,0.0,0.0,43,0.00,,---,0.00,VWS V14.01,2013-10-16 13:16:00,
2013-10-16 08:21:00,28.2,8.6,0.00,WNW,301,0.0,0.0,43,0.00,,---,0.00,VWS V14.01,2013-10-16 13:21:00,
2013-10-16 08:26:00,28.9,9.3,0.00,WNW,288,0.0,0.0,43,0.00,,---,0.00,VWS V14.01,2013-10-16 13:26:00,
2013-10-16 08:31:00,29.3,9.6,0.00,WNW,292,0.0,0.0,43,0.00,,---,0.00,VWS V14.01,2013-10-16 13:31:00,
2013-10-16 08:36:00,29.5,9.8,0.00,NW,309,0.0,0.0,43,0.00,,---,0.00,VWS V14.01,2013-10-16 13:36:00,
2013-10-16 08:41:00,29.5,9.8,0.00,WNW,291,0.0,0.0,43,0.00,,---,0.00,VWS V14.01,2013-10-16 13:41:00,
2013-10-16 08:46:00,30.0,10.2,0.00,West,279,0.0,0.0,43,0.00,,---,0.00,VWS V14.01,2013-10-16 13:46:00,
2013-10-16 08:51:00,30.2,10.9,0.00,West,271,0.0,0.0,44,0.00,,---,0.00,VWS V14.01,2013-10-16 13:51:00,
2013-10-16 08:56:00,30.7,11.4,0.00,WNW,288,0.0,4.0,44,0.00,,---,0.00,VWS V14.01,2013-10-16 13:56:00,
2013-10-16 09:01:00,31.3,12.4,0.00,WSW,252,0.0,0.0,45,0.00,,---,0.00,VWS V14.01,2013-10-16 14:01:00,
2013-10-16 09:06:00,31.8,13.4,0.00,NW,306,0.0,0.0,46,0.00,,---,0.00,VWS V14.01,2013-10-16 14:06:00,
2013-10-16 09:11:00,32.4,13.9,0.00,NW,304,0.0,0.0,46,0.00,,---,0.00,VWS V14.01,2013-10-16 14:11:00,
2013-10-16 09:16:00,32.4,13.9,0.00,West,265,0.0,0.0,46,0.00,,---,0.00,VWS V14.01,2013-10-16 14:16:00,
2013-10-16 09:21:00,33.1,15.5,0.00,WNW,288,0.0,0.0,48,0.00,,---,0.00,VWS V14.01,2013-10-16 14:21:00,
2013-10-16 09:26:00,33.3,15.7,0.00,WSW,258,2.2,2.2,48,0.00,,---,0.00,VWS V14.01,2013-10-16 14:26:00,
2013-10-16 09:31:00,34.2,16.0,0.00,WNW,302,2.7,2.7,47,0.00,,---,0.00,VWS V14.01,2013-10-16 14:31:00,
2013-10-16 09:36:00,34.7,17.0,0.00,West,266,0.0,0.0,48,0.00,,---,0.00,VWS V14.01,2013-10-16 14:36:00,
2013-10-16 09:41:00,35.1,18.3,0.00,West,272,0.0,5.4,50,0.00,,---,0.00,VWS V14.01,2013-10-16 14:41:00,
2013-10-16 09:46:00,35.6,18.3,0.00,WNW,294,3.1,7.2,49,0.00,,---,0.00,VWS V14.01,2013-10-16 14:46:00,
2013-10-16 09:51:00,36.1,16.9,0.00,SSW,211,2.7,5.8,45,0.00,,---,0.00,VWS V14.01,2013-10-16 14:51:00,
2013-10-16 09:56:00,36.5,16.1,0.00,West,279,4.9,4.9,43,0.00,,---,0.00,VWS V14.01,2013-10-16 14:56:00,
2013-10-16 10:01:00,36.7,15.8,0.00,WNW,294,3.1,3.6,42,0.00,,---,0.00,VWS V14.01,2013-10-16 15:01:00,
2013-10-16 10:06:00,37.0,15.0,0.00,West,265,7.6,7.6,40,0.00,,---,0.00,VWS V14.01,2013-10-16 15:06:00,
2013-10-16 10:11:00,37.6,14.9,0.00,WNW,293,2.7,5.4,39,0.00,,---,0.00,VWS V14.01,2013-10-16 15:11:00,
2013-10-16 10:16:00,38.5,15.7,0.00,WSW,248,5.4,5.4,39,0.00,,---,0.00,VWS V14.01,2013-10-16 15:16:00,
2013-10-16 10:21:00,40.1,17.1,0.00,WNW,282,5.4,5.4,39,0.00,,---,0.00,VWS V14.01,2013-10-16 15:21:00,
2013-10-16 10:26:00,40.6,17.6,0.00,WNW,301,0.0,5.4,39,0.00,,---,0.00,VWS V14.01,2013-10-16 15:26:00,
2013-10-16 10:31:00,46.0,21.9,0.00,NNW,339,0.0,0.0,38,0.00,,---,0.00,VWS V14.01,2013-10-16 15:31:00,
2013-10-16 10:36:00,46.8,21.9,0.00,NNW,329,4.0,5.4,37,0.00,,---,0.00,VWS V14.01,2013-10-16 15:36:00,
2013-10-16 10:41:00,46.6,21.7,0.00,West,278,3.1,3.1,37,0.00,,---,0.00,VWS V14.01,2013-10-16 15:41:00,
2013-10-16 10:46:00,49.8,24.6,0.00,WNW,297,4.9,4.9,37,0.00,,---,0.00,VWS V14.01,2013-10-16 15:46:00,
2013-10-16 10:51:00,50.5,24.6,0.00,NW,319,0.0,0.0,36,0.00,,---,0.00,VWS V14.01,2013-10-16 15:51:00,
2013-10-16 10:56:00,50.2,24.3,0.00,WNW,286,2.7,2.7,36,0.00,,---,0.00,VWS V14.01,2013-10-16 15:56:00,
2013-10-16 11:01:00,51.6,25.6,0.00,WNW,287,4.0,4.0,36,0.00,,---,0.00,VWS V14.01,2013-10-16 16:01:00,
2013-10-16 11:06:00,50.5,24.6,0.00,NNW,333,5.4,5.4,36,0.00,,---,0.00,VWS V14.01,2013-10-16 16:06:00,
2013-10-16 11:11:00,50.4,24.4,0.00,NW,306,3.6,3.6,36,0.00,,---,0.00,VWS V14.01,2013-10-16 16:11:00,
2013-10-16 11:16:00,50.0,24.1,0.00,SSW,205,0.0,2.7,36,0.00,,---,0.00,VWS V14.01,2013-10-16 16:16:00,
2013-10-16 11:21:00,53.6,27.3,0.00,NNW,339,2.7,4.0,36,0.00,,---,0.00,VWS V14.01,2013-10-16 16:21:00,
2013-10-16 11:26:00,52.3,26.2,0.00,NNW,340,5.8,5.8,36,0.00,,---,0.00,VWS V14.01,2013-10-16 16:26:00,
2013-10-16 11:31:00,51.3,25.2,0.00,SW,217,5.4,5.4,36,0.00,,---,0.00,VWS V14.01,2013-10-16 16:31:00,
2013-10-16 11:36:00,52.2,26.0,0.00,WNW,302,0.0,3.1,36,0.00,,---,0.00,VWS V14.01,2013-10-16 16:36:00,
2013-10-16 11:41:00,56.1,28.9,0.00,NNW,328,2.7,2.7,35,0.00,,---,0.00,VWS V14.01,2013-10-16 16:41:00,
2013-10-16 11:46:00,54.1,27.8,0.00,SSW,204,3.6,3.6,36,0.00,,---,0.00,VWS V14.01,2013-10-16 16:46:00,
2013-10-16 11:51:00,52.9,26.7,0.00,SSW,198,3.1,3.6,36,0.00,,---,0.00,VWS V14.01,2013-10-16 16:51:00,
2013-10-16 11:56:00,54.3,28.0,0.00,SW,233,0.0,3.6,36,0.00,,---,0.00,VWS V14.01,2013-10-16 16:56:00,
2013-10-16 12:01:00,57.6,30.1,0.00,SW,235,5.8,5.8,35,0.00,,---,0.00,VWS V14.01,2013-10-16 17:01:00,
2013-10-16 12:06:00,55.2,28.8,0.00,NW,321,2.7,2.7,36,0.00,,---,0.00,VWS V14.01,2013-10-16 17:06:00,
2013-10-16 12:11:00,55.8,28.5,0.00,NE,41,3.6,4.9,35,0.00,,---,0.00,VWS V14.01,2013-10-16 17:11:00,
2013-10-16 12:16:00,55.8,28.5,0.00,ENE,58,3.6,3.6,35,0.00,,---,0.00,VWS V14.01,2013-10-16 17:16:00,
2013-10-16 12:21:00,55.8,28.5,0.00,SSW,201,3.1,5.8,35,0.00,,---,0.00,VWS V14.01,2013-10-16 17:21:00,
2013-10-16 12:26:00,55.8,28.5,0.00,NW,309,5.4,5.4,35,0.00,,---,0.00,VWS V14.01,2013-10-16 17:26:00,
2013-10-16 12:31:00,59.7,31.3,0.00,South,189,3.6,4.0,34,0.00,,---,0.00,VWS V14.01,2013-10-16 17:31:00,
2013-10-16 12:36:00,58.6,31.1,0.00,SSW,192,5.4,5.4,35,0.00,,---,0.00,VWS V14.01,2013-10-16 17:36:00,
2013-10-16 12:41:00,60.1,31.6,0.00,SSW,195,0.0,0.0,34,0.00,,---,0.00,VWS V14.01,2013-10-16 17:41:00,
2013-10-16 12:46:00,61.2,32.6,0.00,NNW,327,5.4,5.4,34,0.00,,---,0.00,VWS V14.01,2013-10-16 17:46:00,
2013-10-16 12:51:00,59.0,31.4,0.00,NW,315,5.8,5.8,35,0.00,,---,0.00,VWS V14.01,2013-10-16 17:51:00,
2013-10-16 12:56:00,56.8,29.5,0.00,SW,230,6.3,7.2,35,0.00,,---,0.00,VWS V14.01,2013-10-16 17:56:00,
2013-10-16 13:01:00,58.3,30.8,0.00,WNW,297,3.6,3.6,35,0.00,,---,0.00,VWS V14.01,2013-10-16 18:01:00,
2013-10-16 13:06:00,59.2,30.9,0.00,WSW,253,3.6,5.4,34,0.00,,---,0.00,VWS V14.01,2013-10-16 18:06:00,
2013-10-16 13:11:00,56.3,29.0,0.00,NW,313,3.1,3.1,35,0.00,,---,0.00,VWS V14.01,2013-10-16 18:11:00,
2013-10-16 13:16:00,58.3,30.8,0.00,North,4,2.7,3.1,35,0.00,,---,0.00,VWS V14.01,2013-10-16 18:16:00,
2013-10-16 13:21:00,57.7,30.3,0.00,South,174,4.0,4.0,35,0.00,,---,0.00,VWS V14.01,2013-10-16 18:21:00,
2013-10-16 13:26:00,60.4,32.0,0.00,WNW,291,2.2,2.2,34,0.00,,---,0.00,VWS V14.01,2013-10-16 18:26:00,
2013-10-16 13:28:00,60.1,32.4,0.00,WSW,251,3.6,4.0,35,0.00,,---,0.00,VWS V14.01,2013-10-16 18:28:00,
2013-10-16 13:33:00,61.3,32.8,0.00,NW,304,4.9,4.9,34,0.00,,---,0.00,VWS V14.01,2013-10-16 18:33:00,
2013-10-16 13:38:00,59.2,31.6,0.00,South,177,3.6,3.6,35,0.00,,---,0.00,VWS V14.01,2013-10-16 18:38:00,
2013-10-16 13:43:00,57.7,30.3,0.00,SSW,211,7.6,7.6,35,0.00,,---,0.00,VWS V14.01,2013-10-16 18:43:00,
2013-10-16 13:48:00,57.2,29.8,0.00,SSW,207,5.8,5.8,35,0.00,,---,0.00,VWS V14.01,2013-10-16 18:48:00,
2013-10-16 13:53:00,55.9,28.7,0.00,SW,214,3.6,4.0,35,0.00,,---,0.00,VWS V14.01,2013-10-16 18:53:00,
2013-10-16 13:59:00,58.1,30.6,0.00,WNW,286,0.0,2.2,35,0.00,,---,0.00,VWS V14.01,2013-10-16 18:59:00,
2013-10-16 14:04:00,56.3,29.0,0.00,SW,227,7.6,7.6,35,0.00,,---,0.00,VWS V14.01,2013-10-16 19:04:00,
2013-10-16 14:08:00,55.6,28.4,0.00,WSW,245,2.7,4.0,35,0.00,,---,0.00,VWS V14.01,2013-10-16 19:08:00,
2013-10-16 14:13:00,57.2,29.8,0.00,SW,219,5.8,5.8,35,0.00,,---,0.00,VWS V14.01,2013-10-16 19:13:00,
2013-10-16 14:18:00,56.3,29.0,0.00,SW,223,6.3,6.3,35,0.00,,---,0.00,VWS V14.01,2013-10-16 19:18:00,
2013-10-16 14:24:00,55.9,28.7,0.00,SW,219,4.0,5.4,35,0.00,,---,0.00,VWS V14.01,2013-10-16 19:24:00,
2013-10-16 14:29:00,55.4,28.2,0.00,WSW,244,2.7,4.0,35,0.00,,---,0.00,VWS V14.01,2013-10-16 19:29:00,
2013-10-16 14:34:00,56.3,29.0,0.00,SSW,203,3.1,4.9,35,0.00,,---,0.00,VWS V14.01,2013-10-16 19:34:00,
2013-10-16 14:39:00,55.9,28.7,0.00,SSW,197,3.6,7.6,35,0.00,,---,0.00,VWS V14.01,2013-10-16 19:39:00,
2013-10-16 14:44:00,54.5,28.1,0.00,SW,223,4.5,4.5,36,0.00,,---,0.00,VWS V14.01,2013-10-16 19:44:00,
2013-10-16 14:49:00,54.9,28.4,0.00,South,189,3.6,3.6,36,0.00,,---,0.00,VWS V14.01,2013-10-16 19:49:00,
2013-10-16 14:54:00,55.4,28.2,0.00,SW,214,8.1,8.1,35,0.00,,---,0.00,VWS V14.01,2013-10-16 19:54:00,
2013-10-16 14:59:00,54.7,28.3,0.00,SSW,213,4.0,4.0,36,0.00,,---,0.00,VWS V14.01,2013-10-16 19:59:00,
2013-10-16 15:04:00,54.0,27.6,0.00,West,266,3.6,3.6,36,0.00,,---,0.00,VWS V14.01,2013-10-16 20:04:00,
2013-10-16 15:09:00,54.7,28.3,0.00,SSW,193,5.8,5.8,36,0.00,,---,0.00,VWS V14.01,2013-10-16 20:09:00,
2013-10-16 15:14:00,55.6,28.4,0.00,SW,219,0.0,0.0,35,0.00,,---,0.00,VWS V14.01,2013-10-16 20:14:00,
2013-10-16 15:19:00,54.5,28.1,0.00,West,274,3.1,3.1,36,0.00,,---,0.00,VWS V14.01,2013-10-16 20:19:00,
2013-10-16 15:25:00,54.7,28.3,0.00,NW,304,3.6,3.6,36,0.00,,---,0.00,VWS V14.01,2013-10-16 20:25:00,
2013-10-16 15:30:00,54.1,27.8,0.00,West,280,2.7,2.7,36,0.00,,---,0.00,VWS V14.01,2013-10-16 20:30:00,
2013-10-16 15:35:00,54.1,27.8,0.00,SW,230,3.1,3.1,36,0.00,,---,0.00,VWS V14.01,2013-10-16 20:35:00,
2013-10-16 15:40:00,54.7,28.3,0.00,WNW,286,3.1,3.6,36,0.00,,---,0.00,VWS V14.01,2013-10-16 20:40:00,
2013-10-16 15:45:00,54.3,28.0,0.00,NW,304,3.1,4.0,36,0.00,,---,0.00,VWS V14.01,2013-10-16 20:45:00,
2013-10-16 15:50:00,55.2,28.8,0.00,WSW,256,0.0,0.0,36,0.00,,---,0.00,VWS V14.01,2013-10-16 20:50:00,
2013-10-16 15:55:00,55.9,28.7,0.00,WNW,285,5.8,5.8,35,0.00,,---,0.00,VWS V14.01,2013-10-16 20:55:00,
2013-10-16 16:00:00,55.2,28.8,0.00,WSW,246,4.0,4.0,36,0.00,,---,0.00,VWS V14.01,2013-10-16 21:00:00,
2013-10-16 16:05:00,54.1,27.8,0.00,WNW,288,7.6,7.6,36,0.00,,---,0.00,VWS V14.01,2013-10-16 21:05:00,
2013-10-16 16:10:00,54.1,27.8,0.00,WNW,285,4.0,4.0,36,0.00,,---,0.00,VWS V14.01,2013-10-16 21:10:00,
2013-10-16 16:15:00,53.6,27.3,0.00,WSW,252,4.9,4.9,36,0.00,,---,0.00,VWS V14.01,2013-10-16 21:15:00,
2013-10-16 16:20:00,53.1,26.8,0.00,West,261,3.6,4.0,36,0.00,,---,0.00,VWS V14.01,2013-10-16 21:20:00,
2013-10-16 16:25:00,52.9,26.7,0.00,NW,317,4.5,4.5,36,0.00,,---,0.00,VWS V14.01,2013-10-16 21:25:00,
2013-10-16 16:30:00,52.5,26.4,0.00,SSW,192,0.0,0.0,36,0.00,,---,0.00,VWS V14.01,2013-10-16 21:30:00,
2013-10-16 16:35:00,52.2,26.0,0.00,West,274,5.8,5.8,36,0.00,,---,0.00,VWS V14.01,2013-10-16 21:35:00,
2013-10-16 16:40:00,52.2,26.0,0.00,SSW,195,4.0,4.0,36,0.00,,---,0.00,VWS V14.01,2013-10-16 21:40:00,
2013-10-16 16:45:00,52.2,26.0,0.00,SW,221,3.1,3.1,36,0.00,,---,0.00,VWS V14.01,2013-10-16 21:45:00,
2013-10-16 16:50:00,52.2,26.0,0.00,WNW,290,4.9,4.9,36,0.00,,---,0.00,VWS V14.01,2013-10-16 21:50:00,
2013-10-16 16:55:00,52.2,26.0,0.00,WSW,248,2.2,2.2,36,0.00,,---,0.00,VWS V14.01,2013-10-16 21:55:00,
2013-10-16 17:00:00,52.3,26.2,0.00,NW,309,3.6,4.0,36,0.00,,---,0.00,VWS V14.01,2013-10-16 22:00:00,
2013-10-16 17:05:00,52.2,26.0,0.00,West,274,2.7,2.7,36,0.00,,---,0.00,VWS V14.01,2013-10-16 22:05:00,
2013-10-16 17:10:00,52.3,26.2,0.00,WSW,254,2.2,2.2,36,0.00,,---,0.00,VWS V14.01,2013-10-16 22:10:00,
2013-10-16 17:15:00,52.3,26.2,0.00,WNW,284,3.1,3.1,36,0.00,,---,0.00,VWS V14.01,2013-10-16 22:15:00,
2013-10-16 17:20:00,52.9,26.7,0.00,SSW,196,0.0,2.7,36,0.00,,---,0.00,VWS V14.01,2013-10-16 22:20:00,
2013-10-16 17:25:00,52.0,25.9,0.00,WNW,300,2.7,4.0,36,0.00,,---,0.00,VWS V14.01,2013-10-16 22:25:00,
2013-10-16 17:30:00,51.6,25.6,0.00,WSW,244,3.1,3.1,36,0.00,,---,0.00,VWS V14.01,2013-10-16 22:30:00,
2013-10-16 17:35:00,51.4,25.4,0.00,WNW,285,0.0,0.0,36,0.00,,---,0.00,VWS V14.01,2013-10-16 22:35:00,
2013-10-16 17:40:00,51.3,25.2,0.00,SSW,208,0.0,0.0,36,0.00,,---,0.00,VWS V14.01,2013-10-16 22:40:00,
2013-10-16 17:45:00,50.7,24.8,0.00,SW,226,0.0,3.6,36,0.00,,---,0.00,VWS V14.01,2013-10-16 22:45:00,
2013-10-16 17:50:00,50.5,24.6,0.00,SW,226,0.0,0.0,36,0.00,,---,0.00,VWS V14.01,2013-10-16 22:50:00,
2013-10-16 17:55:00,50.2,24.3,0.00,WSW,249,0.0,0.0,36,0.00,,---,0.00,VWS V14.01,2013-10-16 22:55:00,
2013-10-16 18:00:00,50.0,24.1,0.00,SW,235,0.0,0.0,36,0.00,,---,0.00,VWS V14.01,2013-10-16 23:00:00,
2013-10-16 18:05:00,51.1,25.1,0.00,SW,236,0.0,0.0,36,0.00,,---,0.00,VWS V14.01,2013-10-16 23:05:00,
2013-10-16 18:10:00,51.4,25.4,0.00,SW,236,0.0,0.0,36,0.00,,---,0.00,VWS V14.01,2013-10-16 23:10:00,
2013-10-16 18:15:00,51.3,25.2,0.00,WSW,249,0.0,0.0,36,0.00,,---,0.00,VWS V14.01,2013-10-16 23:15:00,
2013-10-16 18:20:00,50.9,24.9,0.00,WSW,248,0.0,0.0,36,0.00,,---,0.00,VWS V14.01,2013-10-16 23:20:00,
2013-10-16 18:25:00,49.8,24.6,0.00,WSW,248,0.0,0.0,37,0.00,,---,0.00,VWS V14.01,2013-10-16 23:25:00,
2013-10-16 18:30:00,47.8,22.9,0.00,WSW,248,0.0,0.0,37,0.00,,---,0.00,VWS V14.01,2013-10-16 23:30:00,
2013-10-16 18:35:00,46.8,21.9,0.00,WSW,248,0.0,0.0,37,0.00,,---,0.00,VWS V14.01,2013-10-16 23:35:00,
2013-10-16 18:40:00,44.8,20.7,0.00,WSW,248,0.0,0.0,38,0.00,,---,0.00,VWS V14.01,2013-10-16 23:40:00,
2013-10-16 18:45:00,43.9,19.9,0.00,WSW,248,0.0,0.0,38,0.00,,---,0.00,VWS V14.01,2013-10-16 23:45:00,
2013-10-16 18:50:00,42.3,18.5,0.00,WSW,248,0.0,0.0,38,0.00,,---,0.00,VWS V14.01,2013-10-16 23:50:00,
2013-10-16 18:55:00,41.5,17.8,0.00,WSW,248,0.0,0.0,38,0.00,,---,0.00,VWS V14.01,2013-10-16 23:55:00,
2013-10-16 19:00:00,40.6,17.6,0.00,WSW,248,0.0,0.0,39,0.00,,---,0.00,VWS V14.01,2013-10-17 00:00:00,
2013-10-16 19:05:00,40.1,17.1,0.00,WSW,248,0.0,0.0,39,0.00,,---,0.00,VWS V14.01,2013-10-17 00:05:00,
2013-10-16 19:10:00,39.9,17.0,0.00,WSW,248,0.0,0.0,39,0.00,,---,0.00,VWS V14.01,2013-10-17 00:10:00,
2013-10-16 19:15:00,39.4,16.5,0.00,WSW,248,0.0,0.0,39,0.00,,---,0.00,VWS V14.01,2013-10-17 00:15:00,
2013-10-16 19:20:00,39.4,16.5,0.00,WSW,248,0.0,0.0,39,0.00,,---,0.00,VWS V14.01,2013-10-17 00:20:00,
2013-10-16 19:25:00,38.7,15.9,0.00,WSW,248,0.0,0.0,39,0.00,,---,0.00,VWS V14.01,2013-10-17 00:25:00,
2013-10-16 19:30:00,38.7,15.9,0.00,WSW,248,0.0,0.0,39,0.00,,---,0.00,VWS V14.01,2013-10-17 00:30:00,
2013-10-16 19:35:00,38.3,15.5,0.00,WSW,248,0.0,0.0,39,0.00,,---,0.00,VWS V14.01,2013-10-17 00:35:00,
2013-10-16 19:40:00,38.3,15.5,0.00,WSW,248,0.0,0.0,39,0.00,,---,0.00,VWS V14.01,2013-10-17 00:40:00,
2013-10-16 19:45:00,38.5,15.7,0.00,WSW,248,0.0,0.0,39,0.00,,---,0.00,VWS V14.01,2013-10-17 00:45:00,
2013-10-16 19:50:00,39.0,16.2,0.00,WSW,248,0.0,0.0,39,0.00,,---,0.00,VWS V14.01,2013-10-17 00:50:00,
2013-10-16 19:55:00,39.0,16.2,0.00,WSW,248,0.0,0.0,39,0.00,,---,0.00,VWS V14.01,2013-10-17 00:55:00,
2013-10-16 20:00:00,39.0,16.2,0.00,WSW,248,0.0,0.0,39,0.00,,---,0.00,VWS V14.01,2013-10-17 01:00:00,
2013-10-16 20:05:00,38.8,16.0,0.00,WSW,248,0.0,0.0,39,0.00,,---,0.00,VWS V14.01,2013-10-17 01:05:00,
2013-10-16 20:10:00,39.2,16.3,0.00,WSW,248,0.0,0.0,39,0.00,,---,0.00,VWS V14.01,2013-10-17 01:10:00,
2013-10-16 20:15:00,39.2,16.3,0.00,WSW,248,2.7,2.7,39,0.00,,---,0.00,VWS V14.01,2013-10-17 01:15:00,
2013-10-16 20:20:00,40.3,17.3,0.00,WSW,248,0.0,0.0,39,0.00,,---,0.00,VWS V14.01,2013-10-17 01:20:00,
2013-10-16 20:25:00,40.1,17.1,0.00,WSW,248,0.0,0.0,39,0.00,,---,0.00,VWS V14.01,2013-10-17 01:25:00,
2013-10-16 20:30:00,40.1,17.1,0.00,WSW,248,0.0,0.0,39,0.00,,---,0.00,VWS V14.01,2013-10-17 01:30:00,
2013-10-16 20:35:00,39.9,17.0,0.00,WSW,248,0.0,0.0,39,0.00,,---,0.00,VWS V14.01,2013-10-17 01:35:00,
2013-10-16 20:40:00,39.7,16.8,0.00,WSW,248,0.0,0.0,39,0.00,,---,0.00,VWS V14.01,2013-10-17 01:40:00,
2013-10-16 20:45:00,39.6,16.7,0.00,WSW,248,0.0,0.0,39,0.00,,---,0.00,VWS V14.01,2013-10-17 01:45:00,
2013-10-16 20:50:00,39.6,16.7,0.00,WSW,248,0.0,0.0,39,0.00,,---,0.00,VWS V14.01,2013-10-17 01:50:00,
2013-10-16 20:55:00,39.7,16.8,0.00,WSW,248,0.0,0.0,39,0.00,,---,0.00,VWS V14.01,2013-10-17 01:55:00,
2013-10-16 21:00:00,39.7,16.8,0.00,WSW,248,0.0,0.0,39,0.00,,---,0.00,VWS V14.01,2013-10-17 02:00:00,
2013-10-16 21:05:00,39.7,16.8,0.00,WSW,248,0.0,0.0,39,0.00,,---,0.00,VWS V14.01,2013-10-17 02:05:00,
2013-10-16 21:10:00,39.4,16.5,0.00,WSW,248,0.0,0.0,39,0.00,,---,0.00,VWS V14.01,2013-10-17 02:10:00,
2013-10-16 21:15:00,39.2,16.3,0.00,WSW,248,0.0,0.0,39,0.00,,---,0.00,VWS V14.01,2013-10-17 02:15:00,
2013-10-16 21:20:00,38.8,16.0,0.00,WSW,248,0.0,0.0,39,0.00,,---,0.00,VWS V14.01,2013-10-17 02:20:00,
2013-10-16 21:25:00,38.7,15.9,0.00,WSW,248,0.0,0.0,39,0.00,,---,0.00,VWS V14.01,2013-10-17 02:25:00,
2013-10-16 21:30:00,38.7,15.9,0.00,WSW,248,0.0,0.0,39,0.00,,---,0.00,VWS V14.01,2013-10-17 02:30:00,
2013-10-16 21:35:00,38.5,15.7,0.00,WSW,248,0.0,0.0,39,0.00,,---,0.00,VWS V14.01,2013-10-17 02:35:00,
2013-10-16 21:40:00,38.5,15.7,0.00,WSW,247,0.0,0.0,39,0.00,,---,0.00,VWS V14.01,2013-10-17 02:40:00,
2013-10-16 21:45:00,38.1,15.4,0.00,SSW,208,0.0,0.0,39,0.00,,---,0.00,VWS V14.01,2013-10-17 02:45:00,
2013-10-16 21:50:00,37.6,14.9,0.00,SSW,208,0.0,0.0,39,0.00,,---,0.00,VWS V14.01,2013-10-17 02:50:00,
2013-10-16 21:55:00,37.0,15.0,0.00,SSW,208,0.0,0.0,40,0.00,,---,0.00,VWS V14.01,2013-10-17 02:55:00,
2013-10-16 22:00:00,36.9,14.8,0.00,SSW,208,0.0,0.0,40,0.00,,---,0.00,VWS V14.01,2013-10-17 03:00:00,
2013-10-16 22:05:00,36.7,14.6,0.00,SSW,208,0.0,0.0,40,0.00,,---,0.00,VWS V14.01,2013-10-17 03:05:00,
2013-10-16 22:10:00,37.0,15.0,0.00,SSW,208,0.0,0.0,40,0.00,,---,0.00,VWS V14.01,2013-10-17 03:10:00,
2013-10-16 22:15:00,37.2,15.1,0.00,SSW,208,0.0,0.0,40,0.00,,---,0.00,VWS V14.01,2013-10-17 03:15:00,
2013-10-16 22:20:00,37.2,15.1,0.00,SSW,208,0.0,0.0,40,0.00,,---,0.00,VWS V14.01,2013-10-17 03:20:00,
2013-10-16 22:25:00,37.2,15.1,0.00,SSW,208,0.0,0.0,40,0.00,,---,0.00,VWS V14.01,2013-10-17 03:25:00,
2013-10-16 22:30:00,37.2,15.1,0.00,SSW,208,0.0,0.0,40,0.00,,---,0.00,VWS V14.01,2013-10-17 03:30:00,
2013-10-16 22:35:00,36.9,14.8,0.00,SW,235,0.0,0.0,40,0.00,,---,0.00,VWS V14.01,2013-10-17 03:35:00,
2013-10-16 22:40:00,36.1,14.2,0.00,SW,235,0.0,0.0,40,0.00,,---,0.00,VWS V14.01,2013-10-17 03:40:00,
2013-10-16 22:45:00,35.4,13.5,0.00,SW,235,0.0,0.0,40,0.00,,---,0.00,VWS V14.01,2013-10-17 03:45:00,
2013-10-16 22:50:00,35.1,13.2,0.00,SW,235,0.0,0.0,40,0.00,,---,0.00,VWS V14.01,2013-10-17 03:50:00,
2013-10-16 22:55:00,35.4,13.5,0.00,West,272,0.0,0.0,40,0.00,,---,0.00,VWS V14.01,2013-10-17 03:55:00,
2013-10-16 23:00:00,35.2,13.4,0.00,West,272,0.0,0.0,40,0.00,,---,0.00,VWS V14.01,2013-10-17 04:00:00,
2013-10-16 23:01:00,35.2,13.4,0.00,West,272,0.0,0.0,40,0.00,,---,0.00,VWS V14.01,2013-10-17 04:01:00,
2013-10-16 23:06:00,35.1,13.2,0.00,West,272,0.0,0.0,40,0.00,,---,0.00,VWS V14.01,2013-10-17 04:06:00,
2013-10-16 23:11:00,35.1,13.2,0.00,West,272,0.0,0.0,40,0.00,,---,0.00,VWS V14.01,2013-10-17 04:11:00,
2013-10-16 23:16:00,34.7,12.9,0.00,West,272,0.0,0.0,40,0.00,,---,0.00,VWS V14.01,2013-10-17 04:16:00,
2013-10-16 23:21:00,34.7,12.9,0.00,West,272,0.0,0.0,40,0.00,,---,0.00,VWS V14.01,2013-10-17 04:21:00,
2013-10-16 23:26:00,34.5,12.7,0.00,West,272,0.0,0.0,40,0.00,,---,0.00,VWS V14.01,2013-10-17 04:26:00,
2013-10-16 23:31:00,34.5,12.7,0.00,West,272,0.0,0.0,40,0.00,,---,0.00,VWS V14.01,2013-10-17 04:31:00,
2013-10-16 23:36:00,34.3,12.5,0.00,West,272,0.0,0.0,40,0.00,,---,0.00,VWS V14.01,2013-10-17 04:36:00,
2013-10-16 23:41:00,34.0,12.2,0.00,West,272,0.0,0.0,40,0.00,,---,0.00,VWS V14.01,2013-10-17 04:41:00,
2013-10-16 23:46:00,33.8,12.1,0.00,West,272,0.0,0.0,40,0.00,,---,0.00,VWS V14.01,2013-10-17 04:46:00,
2013-10-16 23:51:00,33.3,12.1,0.00,West,272,0.0,0.0,41,0.00,,---,0.00,VWS V14.01,2013-10-17 04:51:00,
2013-10-16 23:56:00,33.1,12.0,0.00,West,272,0.0,0.0,41,0.00,,---,0.00,VWS V14.01,2013-10-17 04:56:00,